createdAt,value
2023-06-15T00:01:18.356Z,16.80
2023-06-15T00:03:53.231Z,16.80
2023-06-15T00:06:26.576Z,16.70
2023-06-15T00:08:59.995Z,16.70
2023-06-15T00:11:32.935Z,16.60
2023-06-15T00:14:06.913Z,16.40
2023-06-15T00:16:43.141Z,16.40
2023-06-15T00:19:16.443Z,16.30
2023-06-15T00:21:49.757Z,16.20
2023-06-15T00:24:22.769Z,16.20
2023-06-15T00:26:55.803Z,16.10
2023-06-15T00:29:28.985Z,16.10
2023-06-15T00:32:01.958Z,16.10
2023-06-15T00:34:37.684Z,16.00
2023-06-15T00:37:10.722Z,16.00
2023-06-15T00:39:43.689Z,15.90
2023-06-15T00:42:16.677Z,15.90
2023-06-15T00:44:49.816Z,15.90
2023-06-15T00:47:23.625Z,15.90
2023-06-15T00:49:59.063Z,15.80
2023-06-15T00:52:32.055Z,15.80
2023-06-15T00:55:06.413Z,15.80
2023-06-15T00:57:45.332Z,15.80
2023-06-15T01:00:19.597Z,15.60
2023-06-15T01:02:57.814Z,15.60
2023-06-15T01:05:36.473Z,15.50
2023-06-15T01:08:09.738Z,15.50
2023-06-15T01:10:44.081Z,15.40
2023-06-15T01:13:20.543Z,15.40
2023-06-15T01:15:58.368Z,15.40
2023-06-15T01:18:35.141Z,15.40
2023-06-15T01:21:10.694Z,15.40
2023-06-15T01:24:08.686Z,15.30
2023-06-15T01:26:42.979Z,15.30
2023-06-15T01:29:18.258Z,15.30
2023-06-15T01:31:53.670Z,15.30
2023-06-15T01:34:26.733Z,15.20
2023-06-15T01:36:59.668Z,15.20
2023-06-15T01:39:32.752Z,15.20
2023-06-15T01:42:06.888Z,15.20
2023-06-15T01:44:42.108Z,15.10
2023-06-15T01:47:16.076Z,15.00
2023-06-15T01:49:49.218Z,14.90
2023-06-15T01:52:22.753Z,14.90
2023-06-15T01:54:55.786Z,14.80
2023-06-15T01:57:37.619Z,14.80
2023-06-15T02:00:12.600Z,14.80
2023-06-15T02:02:48.592Z,14.80
2023-06-15T02:05:22.408Z,14.70
2023-06-15T02:07:55.928Z,14.70
2023-06-15T02:10:28.891Z,14.60
2023-06-15T02:13:02.288Z,14.60
2023-06-15T02:15:35.414Z,14.50
2023-06-15T02:18:13.726Z,14.50
2023-06-15T02:20:47.204Z,14.40
2023-06-15T02:23:21.070Z,14.40
2023-06-15T02:25:54.049Z,14.30
2023-06-15T02:28:27.016Z,14.30
2023-06-15T02:30:59.972Z,14.30
2023-06-15T02:33:33.639Z,14.30
2023-06-15T02:36:07.695Z,14.30
2023-06-15T02:38:40.686Z,14.30
2023-06-15T02:41:13.678Z,14.20
2023-06-15T02:43:47.643Z,14.20
2023-06-15T02:46:22.079Z,14.20
2023-06-15T02:48:55.129Z,14.10
2023-06-15T02:51:29.278Z,14.10
2023-06-15T02:54:02.324Z,14.10
2023-06-15T02:56:37.469Z,14.00
2023-06-15T02:59:12.402Z,14.00
2023-06-15T03:01:56.187Z,14.00
2023-06-15T03:07:46.848Z,14.10
2023-06-15T03:10:32.676Z,14.00
2023-06-15T03:13:06.497Z,14.00
2023-06-15T03:15:40.580Z,13.90
2023-06-15T03:18:14.945Z,13.90
2023-06-15T03:20:54.488Z,13.90
2023-06-15T03:23:28.129Z,13.80
2023-06-15T03:26:01.275Z,13.80
2023-06-15T03:28:39.329Z,13.70
2023-06-15T03:31:20.378Z,13.70
2023-06-15T03:33:56.464Z,13.70
2023-06-15T03:36:33.256Z,13.70
2023-06-15T03:39:07.944Z,13.70
2023-06-15T03:41:41.904Z,13.70
2023-06-15T03:44:15.465Z,13.60
2023-06-15T03:46:49.340Z,13.60
2023-06-15T03:49:22.372Z,13.60
2023-06-15T03:51:56.647Z,13.60
2023-06-15T03:54:29.720Z,13.60
2023-06-15T03:57:04.033Z,13.60
2023-06-15T03:59:37.261Z,13.60
2023-06-15T04:02:10.751Z,13.60
2023-06-15T04:04:43.906Z,13.70
2023-06-15T04:07:18.448Z,13.70
2023-06-15T04:09:51.887Z,13.70
2023-06-15T04:12:25.636Z,13.70
2023-06-15T04:14:58.951Z,13.80
2023-06-15T04:17:32.967Z,13.70
2023-06-15T04:20:06.946Z,13.70
2023-06-15T04:22:41.478Z,13.70
2023-06-15T04:25:14.817Z,13.70
2023-06-15T04:27:48.368Z,13.80
2023-06-15T04:30:26.470Z,13.80
2023-06-15T04:33:06.387Z,13.80
2023-06-15T04:35:46.494Z,13.80
2023-06-15T04:38:22.313Z,13.80
2023-06-15T04:41:01.597Z,13.90
2023-06-15T04:43:36.886Z,14.00
2023-06-15T04:46:10.209Z,14.10
2023-06-15T04:48:45.394Z,14.20
2023-06-15T04:51:24.226Z,14.20
2023-06-15T04:54:03.854Z,14.30
2023-06-15T04:56:38.011Z,14.40
2023-06-15T04:59:11.317Z,14.40
2023-06-15T05:01:45.540Z,14.50
2023-06-15T05:04:30.293Z,14.60
2023-06-15T05:07:03.684Z,14.70
2023-06-15T05:09:41.079Z,14.80
2023-06-15T05:12:18.235Z,14.90
2023-06-15T05:14:52.008Z,15.00
2023-06-15T05:17:25.528Z,15.10
2023-06-15T05:19:58.885Z,15.30
2023-06-15T05:22:32.727Z,15.40
2023-06-15T05:25:06.661Z,15.50
2023-06-15T05:27:39.952Z,15.70
2023-06-15T05:30:13.427Z,15.90
2023-06-15T05:32:46.896Z,16.20
2023-06-15T05:35:21.339Z,16.50
2023-06-15T05:37:54.994Z,16.60
2023-06-15T05:40:29.024Z,16.90
2023-06-15T05:43:02.233Z,17.00
2023-06-15T05:45:38.910Z,17.20
2023-06-15T05:48:18.018Z,17.50
2023-06-15T05:50:51.249Z,17.70
2023-06-15T05:53:25.094Z,17.80
2023-06-15T05:55:58.262Z,18.00
2023-06-15T05:58:31.380Z,18.30
2023-06-15T06:01:05.552Z,18.50
2023-06-15T06:03:38.586Z,18.60
2023-06-15T06:06:11.918Z,18.90
2023-06-15T06:08:44.971Z,19.00
2023-06-15T06:11:18.173Z,19.10
2023-06-15T06:13:57.294Z,19.20
2023-06-15T06:16:30.481Z,19.40
2023-06-15T06:19:04.931Z,19.60
2023-06-15T06:21:38.078Z,19.80
2023-06-15T06:24:11.403Z,20.10
2023-06-15T06:26:44.946Z,20.40
2023-06-15T06:29:18.494Z,20.60
2023-06-15T06:31:51.892Z,20.80
2023-06-15T06:34:24.939Z,21.10
2023-06-15T06:37:01.760Z,20.90
2023-06-15T06:39:34.898Z,20.90
2023-06-15T06:42:08.371Z,20.90
2023-06-15T06:44:44.683Z,21.10
2023-06-15T06:47:18.122Z,21.30
2023-06-15T06:49:51.218Z,21.40
2023-06-15T06:52:24.372Z,21.40
2023-06-15T06:54:57.400Z,21.40
2023-06-15T06:57:31.057Z,21.40
2023-06-15T07:00:04.999Z,21.50
2023-06-15T07:02:38.349Z,21.40
2023-06-15T07:05:11.724Z,21.30
2023-06-15T07:07:45.058Z,21.40
2023-06-15T07:10:18.107Z,21.50
2023-06-15T07:12:51.914Z,21.50
2023-06-15T07:15:25.001Z,21.60
2023-06-15T07:17:58.852Z,21.70
2023-06-15T07:20:31.938Z,21.90
2023-06-15T07:23:05.167Z,22.00
2023-06-15T07:25:38.245Z,22.20
2023-06-15T07:28:11.460Z,22.40
2023-06-15T07:30:45.789Z,22.60
2023-06-15T07:33:20.185Z,22.80
2023-06-15T07:35:53.251Z,23.00
2023-06-15T07:38:26.864Z,23.20
2023-06-15T07:41:00.249Z,23.20
2023-06-15T07:43:33.714Z,23.20
2023-06-15T07:46:06.833Z,23.30
2023-06-15T07:48:40.234Z,23.30
2023-06-15T07:51:24.282Z,23.50
2023-06-15T07:54:05.919Z,23.30
2023-06-15T07:56:39.197Z,23.20
2023-06-15T07:59:12.750Z,23.20
2023-06-15T08:01:45.863Z,23.20
2023-06-15T08:04:19.089Z,23.10
2023-06-15T08:06:52.163Z,23.00
2023-06-15T08:09:25.277Z,23.00
2023-06-15T08:11:58.484Z,23.00
2023-06-15T08:14:38.915Z,23.20
2023-06-15T08:17:13.615Z,23.20
2023-06-15T08:19:48.906Z,23.30
2023-06-15T08:22:24.051Z,23.30
2023-06-15T08:24:59.019Z,23.40
2023-06-15T08:27:34.955Z,23.70
2023-06-15T08:30:09.165Z,24.00
2023-06-15T08:32:44.903Z,24.20
2023-06-15T08:35:18.535Z,24.30
2023-06-15T08:37:52.098Z,24.50
2023-06-15T08:40:26.576Z,24.50
2023-06-15T08:43:00.936Z,24.50
2023-06-15T08:45:42.694Z,24.40
2023-06-15T08:48:21.278Z,24.70
2023-06-15T08:50:54.754Z,24.80
2023-06-15T08:53:33.080Z,24.70
2023-06-15T08:56:12.742Z,24.80
2023-06-15T08:58:51.072Z,24.80
2023-06-15T09:01:27.025Z,24.60
2023-06-15T09:04:02.124Z,24.60
2023-06-15T09:06:36.258Z,24.70
2023-06-15T09:09:11.022Z,24.80
2023-06-15T09:11:47.956Z,25.10
2023-06-15T09:14:22.993Z,25.10
2023-06-15T09:16:56.789Z,25.00
2023-06-15T09:19:37.836Z,25.00
2023-06-15T09:22:12.475Z,24.90
2023-06-15T09:24:47.803Z,24.70
2023-06-15T09:27:22.463Z,24.80
2023-06-15T09:30:06.476Z,24.80
2023-06-15T09:32:41.421Z,24.90
2023-06-15T09:35:14.773Z,25.10
2023-06-15T09:37:53.700Z,25.20
2023-06-15T09:40:31.635Z,25.50
2023-06-15T09:43:06.863Z,25.50
2023-06-15T09:45:54.072Z,25.70
2023-06-15T09:48:28.413Z,25.70
2023-06-15T09:51:03.190Z,25.80
2023-06-15T09:53:41.457Z,26.00
2023-06-15T09:56:28.831Z,26.10
2023-06-15T09:59:04.844Z,26.00
2023-06-15T10:01:38.988Z,26.20
2023-06-15T10:04:15.191Z,26.30
2023-06-15T10:06:56.118Z,26.50
2023-06-15T10:09:34.168Z,26.90
2023-06-15T10:12:14.932Z,27.10
2023-06-15T10:15:06.420Z,27.50
2023-06-15T10:17:48.546Z,27.60
2023-06-15T10:20:25.326Z,27.60
2023-06-15T10:23:09.870Z,27.50
2023-06-15T10:25:47.174Z,27.40
2023-06-15T10:28:24.447Z,27.60
2023-06-15T10:31:20.348Z,27.90
2023-06-15T10:34:10.105Z,28.20
2023-06-15T10:37:04.512Z,28.50
2023-06-15T10:39:42.781Z,28.90
2023-06-15T10:42:18.974Z,29.10
2023-06-15T10:44:54.645Z,28.90
2023-06-15T10:47:30.802Z,28.70
2023-06-15T10:50:16.498Z,28.50
2023-06-15T10:52:51.356Z,28.60
2023-06-15T10:55:27.570Z,28.70
2023-06-15T10:58:29.524Z,28.40
2023-06-15T11:01:08.874Z,28.50
2023-06-15T11:03:45.861Z,28.20
2023-06-15T11:06:21.197Z,28.20
2023-06-15T11:09:02.306Z,28.40
2023-06-15T11:11:40.295Z,28.60
2023-06-15T11:14:24.861Z,28.60
2023-06-15T11:17:07.019Z,28.10
2023-06-15T11:19:43.228Z,28.10
2023-06-15T11:22:32.110Z,28.50
2023-06-15T11:25:07.707Z,28.50
2023-06-15T11:27:42.140Z,28.60
2023-06-15T11:30:17.163Z,28.90
2023-06-15T11:32:50.872Z,29.20
2023-06-15T11:35:26.037Z,29.50
2023-06-15T11:37:59.960Z,29.60
2023-06-15T11:40:33.847Z,29.50
2023-06-15T11:43:13.199Z,29.30
2023-06-15T11:45:48.326Z,29.10
2023-06-15T11:48:21.490Z,29.20
2023-06-15T11:50:56.988Z,29.10
2023-06-15T11:53:30.283Z,29.10
2023-06-15T11:56:10.335Z,29.20
2023-06-15T11:58:45.030Z,28.80
2023-06-15T12:01:20.185Z,28.70
2023-06-15T12:04:05.240Z,28.70
2023-06-15T12:06:40.667Z,28.50
2023-06-15T12:09:15.399Z,28.30
2023-06-15T12:11:48.999Z,27.70
2023-06-15T12:14:25.799Z,27.10
2023-06-15T12:16:59.220Z,27.00
2023-06-15T12:19:32.355Z,27.00
2023-06-15T12:22:07.634Z,27.20
2023-06-15T12:24:42.199Z,27.60
2023-06-15T12:27:18.076Z,28.10
2023-06-15T12:30:17.640Z,28.30
2023-06-15T12:32:51.817Z,28.30
2023-06-15T12:35:29.265Z,28.10
2023-06-15T12:38:23.919Z,27.60
2023-06-15T12:40:59.297Z,27.20
2023-06-15T12:43:35.438Z,26.80
2023-06-15T12:46:09.863Z,26.50
2023-06-15T12:48:46.777Z,26.30
2023-06-15T12:51:21.369Z,26.20
2023-06-15T12:53:58.240Z,26.30
2023-06-15T12:56:33.120Z,26.30
2023-06-15T12:59:07.784Z,26.30
2023-06-15T13:01:41.843Z,26.10
2023-06-15T13:04:15.392Z,26.10
2023-06-15T13:06:49.725Z,25.90
2023-06-15T13:09:24.301Z,25.90
2023-06-15T13:11:58.308Z,25.80
2023-06-15T13:14:33.507Z,26.00
2023-06-15T13:17:06.986Z,26.20
2023-06-15T13:19:43.596Z,26.40
2023-06-15T13:22:18.115Z,26.40
2023-06-15T13:24:53.430Z,26.40
2023-06-15T13:27:27.470Z,26.30
2023-06-15T13:30:01.607Z,26.10
2023-06-15T13:32:42.463Z,26.00
2023-06-15T13:35:18.366Z,25.90
2023-06-15T13:37:54.074Z,25.90
2023-06-15T13:40:28.206Z,25.90
2023-06-15T13:43:03.946Z,26.00
2023-06-15T13:45:39.106Z,26.00
2023-06-15T13:48:12.372Z,26.00
2023-06-15T13:50:45.797Z,26.00
2023-06-15T13:53:18.809Z,26.00
2023-06-15T13:55:52.210Z,25.90
2023-06-15T13:58:25.971Z,25.90
2023-06-15T14:01:00.596Z,25.90
2023-06-15T14:03:35.035Z,25.80
2023-06-15T14:06:08.721Z,25.70
2023-06-15T14:08:41.778Z,25.70
2023-06-15T14:11:16.787Z,25.70
2023-06-15T14:13:53.713Z,25.70
2023-06-15T14:16:27.480Z,25.80
2023-06-15T14:19:00.615Z,25.80
2023-06-15T14:21:33.753Z,25.80
2023-06-15T14:24:06.913Z,25.90
2023-06-15T14:26:40.297Z,25.80
2023-06-15T14:29:16.305Z,25.90
2023-06-15T14:31:53.048Z,25.90
2023-06-15T14:34:26.452Z,25.90
2023-06-15T14:36:59.716Z,25.90
2023-06-15T14:39:32.722Z,26.00
2023-06-15T14:42:06.332Z,25.90
2023-06-15T14:44:39.330Z,26.00
2023-06-15T14:47:12.452Z,26.00
2023-06-15T14:49:45.557Z,26.00
2023-06-15T14:52:18.900Z,26.10
2023-06-15T14:54:52.289Z,26.10
2023-06-15T14:57:26.053Z,26.10
2023-06-15T14:59:59.725Z,26.10
2023-06-15T15:02:32.917Z,26.10
2023-06-15T15:05:06.781Z,26.10
2023-06-15T15:07:40.386Z,26.00
2023-06-15T15:10:13.519Z,25.90
2023-06-15T15:12:48.390Z,25.90
2023-06-15T15:18:15.471Z,25.80
2023-06-15T15:20:48.727Z,25.70
2023-06-15T15:23:21.846Z,25.70
2023-06-15T15:25:57.762Z,25.70
2023-06-15T15:28:31.408Z,25.70
2023-06-15T15:31:04.399Z,25.70
2023-06-15T15:33:37.751Z,25.70
2023-06-15T15:36:15.814Z,25.80
2023-06-15T15:38:48.948Z,25.80
2023-06-15T15:41:25.869Z,25.80
2023-06-15T15:44:00.549Z,25.80
2023-06-15T15:46:33.846Z,25.80
2023-06-15T15:49:07.677Z,25.80
2023-06-15T15:51:40.662Z,25.60
2023-06-15T15:54:15.011Z,25.60
2023-06-15T15:56:48.004Z,25.60
2023-06-15T15:59:22.997Z,25.60
2023-06-15T16:01:56.569Z,25.50
2023-06-15T16:07:31.080Z,25.50
2023-06-15T16:10:04.374Z,25.40
2023-06-15T16:12:37.884Z,25.40
2023-06-15T16:15:11.942Z,25.40
2023-06-15T16:17:45.403Z,25.40
2023-06-15T16:20:19.057Z,25.40
2023-06-15T16:22:52.229Z,25.40
2023-06-15T16:25:25.348Z,25.50
2023-06-15T16:27:58.432Z,25.50
2023-06-15T16:30:31.711Z,25.50
2023-06-15T16:33:04.810Z,25.40
2023-06-15T16:35:39.006Z,25.40
2023-06-15T16:38:12.085Z,25.40
2023-06-15T16:40:48.600Z,25.40
2023-06-15T16:43:21.659Z,25.40
2023-06-15T16:45:54.760Z,25.50
2023-06-15T16:48:28.133Z,25.40
2023-06-15T16:51:02.382Z,25.40
2023-06-15T16:53:37.192Z,25.30
2023-06-15T17:28:54.185Z,25.10
2023-06-15T17:31:29.091Z,25.00
2023-06-15T17:34:02.325Z,25.00
2023-06-15T17:36:36.594Z,25.00
2023-06-15T17:39:09.624Z,25.10
2023-06-15T17:41:43.000Z,25.10
2023-06-15T17:44:16.022Z,25.10
2023-06-15T17:46:51.044Z,25.00
2023-06-15T17:49:24.424Z,24.90
2023-06-15T17:52:00.598Z,24.90
2023-06-15T17:54:36.973Z,24.90
2023-06-15T17:57:10.159Z,24.80
2023-06-15T17:59:43.306Z,24.80
2023-06-15T18:02:16.544Z,24.70
2023-06-15T18:04:49.640Z,24.70
2023-06-15T18:07:22.800Z,24.60
2023-06-15T18:09:55.859Z,24.60
2023-06-15T18:12:30.645Z,24.50
2023-06-15T18:15:04.621Z,24.50
2023-06-15T18:17:37.765Z,24.40
2023-06-15T18:20:11.346Z,24.40
2023-06-15T18:22:44.481Z,24.40
2023-06-15T18:25:19.068Z,24.40
2023-06-15T18:27:52.299Z,24.40
2023-06-15T18:30:26.764Z,24.30
2023-06-15T18:33:01.541Z,24.30
2023-06-15T18:35:34.677Z,24.30
2023-06-15T18:38:07.819Z,24.30
2023-06-15T18:40:40.956Z,24.20
2023-06-15T18:43:15.602Z,24.20
2023-06-15T18:45:48.768Z,24.20
2023-06-15T18:48:22.369Z,24.20
2023-06-15T18:50:55.417Z,24.10
2023-06-15T18:53:29.009Z,24.10
2023-06-15T18:56:02.270Z,24.10
2023-06-15T18:58:35.446Z,24.00
2023-06-15T19:01:08.555Z,24.00
2023-06-15T19:03:42.071Z,24.00
2023-06-15T19:06:15.390Z,23.90
2023-06-15T19:08:48.597Z,23.90
2023-06-15T19:11:21.602Z,23.90
2023-06-15T19:13:54.937Z,23.80
2023-06-15T19:16:28.761Z,23.80
2023-06-15T19:19:01.945Z,23.70
2023-06-15T19:21:38.268Z,23.60
2023-06-15T19:24:11.922Z,23.60
2023-06-15T19:26:45.102Z,23.50
2023-06-15T19:29:18.214Z,23.40
2023-06-15T19:31:53.152Z,23.30
2023-06-15T19:34:26.357Z,23.20
2023-06-15T19:36:59.676Z,23.10
2023-06-15T19:39:32.711Z,23.10
2023-06-15T19:42:06.666Z,23.00
2023-06-15T19:44:39.839Z,22.90
2023-06-15T19:47:13.185Z,22.80
2023-06-15T19:49:46.249Z,22.70
2023-06-15T19:52:19.557Z,22.60
2023-06-15T19:54:52.674Z,22.50
2023-06-15T19:57:26.289Z,22.40
2023-06-15T20:00:02.562Z,22.30
2023-06-15T20:02:44.136Z,22.10
2023-06-15T20:05:17.352Z,22.00
2023-06-15T20:07:50.575Z,21.90
2023-06-15T20:10:24.137Z,21.80
2023-06-15T20:12:57.184Z,21.70
2023-06-15T20:15:32.059Z,21.60
2023-06-15T20:18:05.224Z,21.40
2023-06-15T20:20:38.449Z,21.30
2023-06-15T20:23:13.013Z,21.30
2023-06-15T20:25:46.112Z,21.20
2023-06-15T20:28:19.255Z,21.00
2023-06-15T20:30:52.791Z,21.00
2023-06-15T20:33:27.778Z,20.90
2023-06-15T20:36:01.613Z,20.80
2023-06-15T20:38:36.307Z,20.80
2023-06-15T20:41:09.858Z,20.80
2023-06-15T20:43:42.931Z,20.70
2023-06-15T20:46:19.887Z,20.60
2023-06-15T20:48:54.869Z,20.60
2023-06-15T20:51:28.176Z,20.50
2023-06-15T20:54:01.189Z,20.50
2023-06-15T20:56:34.305Z,20.50
2023-06-15T20:59:07.368Z,20.40
2023-06-15T21:01:40.860Z,20.40
2023-06-15T21:04:17.613Z,20.30
2023-06-15T21:06:50.796Z,20.20
2023-06-15T21:09:23.850Z,20.10
2023-06-15T21:11:57.475Z,20.00
2023-06-15T21:14:30.889Z,19.90
2023-06-15T21:17:04.403Z,19.80
2023-06-15T21:19:37.490Z,19.80
2023-06-15T21:22:10.703Z,19.80
2023-06-15T21:24:43.792Z,19.80
2023-06-15T21:27:17.167Z,19.70
2023-06-15T21:29:50.154Z,19.60
2023-06-15T21:32:23.618Z,19.50
2023-06-15T21:34:56.852Z,19.50
2023-06-15T21:37:29.939Z,19.50
2023-06-15T21:40:03.143Z,19.50
2023-06-15T21:42:36.225Z,19.40
2023-06-15T21:45:09.844Z,19.40
2023-06-15T21:47:43.506Z,19.40
2023-06-15T21:50:19.492Z,19.30
2023-06-15T21:52:59.153Z,19.20
2023-06-15T21:55:32.573Z,19.20
2023-06-15T21:58:05.658Z,19.30
2023-06-15T22:00:38.791Z,19.20
2023-06-15T22:03:12.321Z,19.20
2023-06-15T22:05:45.638Z,19.20
2023-06-15T22:08:19.367Z,19.10
2023-06-15T22:10:52.434Z,19.10
2023-06-15T22:13:26.960Z,19.00
2023-06-15T22:16:00.168Z,18.90
2023-06-15T22:18:34.923Z,18.90
2023-06-15T22:21:08.453Z,18.80
2023-06-15T22:23:43.087Z,18.60
2023-06-15T22:26:20.127Z,18.50
2023-06-15T22:28:53.676Z,18.40
2023-06-15T22:31:26.907Z,18.40
2023-06-15T22:34:00.054Z,18.40
2023-06-15T22:36:33.996Z,18.40
2023-06-15T22:39:08.244Z,18.40
2023-06-15T22:41:41.238Z,18.40
2023-06-15T22:44:14.560Z,18.40
2023-06-15T22:46:48.333Z,18.40
2023-06-15T22:49:22.142Z,18.30
2023-06-15T22:51:58.949Z,18.20
2023-06-15T22:54:32.687Z,18.10
2023-06-15T22:57:06.686Z,18.00
2023-06-15T22:59:40.101Z,17.90
2023-06-15T23:02:14.055Z,17.90
2023-06-15T23:04:49.464Z,17.80
2023-06-15T23:07:22.468Z,17.70
2023-06-15T23:09:55.628Z,17.60
2023-06-15T23:12:31.999Z,17.60
2023-06-15T23:15:05.667Z,17.60
2023-06-15T23:17:39.255Z,17.50
2023-06-15T23:20:12.687Z,17.30
2023-06-15T23:22:46.542Z,17.30
2023-06-15T23:25:24.786Z,17.30
2023-06-15T23:28:00.865Z,17.20
2023-06-15T23:30:36.290Z,17.20
2023-06-15T23:33:09.405Z,17.30
2023-06-15T23:35:42.563Z,17.20
2023-06-15T23:38:15.731Z,17.20
2023-06-15T23:40:48.878Z,17.20
2023-06-15T23:43:22.309Z,17.20
2023-06-15T23:45:55.627Z,17.20
2023-06-15T23:48:28.644Z,17.20
2023-06-15T23:51:01.814Z,17.20
2023-06-15T23:53:34.903Z,17.20
2023-06-15T23:56:11.094Z,17.20
2023-06-15T23:58:44.250Z,17.10
